createdAt,value
2017-11-13T00:01:31.740Z,7.75
2017-11-13T00:03:58.197Z,9.45
2017-11-13T00:06:24.667Z,12.30
2017-11-13T00:08:51.124Z,7.15
2017-11-13T00:11:18.333Z,8.45
2017-11-13T00:13:44.807Z,6.97
2017-11-13T00:16:12.746Z,10.25
2017-11-13T00:18:39.214Z,10.40
2017-11-13T00:21:06.424Z,11.68
2017-11-13T00:23:32.888Z,11.68
2017-11-13T00:25:59.304Z,8.50
2017-11-13T00:28:25.796Z,7.82
2017-11-13T00:30:52.993Z,5.87
2017-11-13T00:33:19.489Z,10.10
2017-11-13T00:35:46.793Z,9.13
2017-11-13T00:38:13.288Z,11.43
2017-11-13T00:40:39.868Z,10.30
2017-11-13T00:43:06.348Z,10.93
2017-11-13T00:45:33.012Z,11.95
2017-11-13T00:48:00.202Z,10.38
2017-11-13T00:50:26.661Z,12.50
2017-11-13T00:52:53.106Z,13.62
2017-11-13T00:55:19.580Z,11.68
2017-11-13T00:57:46.071Z,12.63
2017-11-13T01:00:12.578Z,13.60
2017-11-13T01:02:39.837Z,13.95
2017-11-13T01:05:07.034Z,9.27
2017-11-13T01:07:33.516Z,9.60
2017-11-13T01:10:00.141Z,15.05
2017-11-13T01:12:26.587Z,11.10
2017-11-13T01:14:53.080Z,13.30
2017-11-13T01:17:19.556Z,14.95
2017-11-13T01:19:46.031Z,12.18
2017-11-13T01:22:13.223Z,12.15
2017-11-13T01:24:39.745Z,10.50
2017-11-13T01:27:06.204Z,14.65
2017-11-13T01:29:32.709Z,11.52
2017-11-13T01:31:59.945Z,12.13
2017-11-13T01:34:26.397Z,10.82
2017-11-13T01:36:53.608Z,14.25
2017-11-13T01:39:20.133Z,13.95
2017-11-13T01:41:46.581Z,12.95
2017-11-13T01:44:13.053Z,10.05
2017-11-13T01:46:39.486Z,9.90
2017-11-13T01:49:05.965Z,11.80
2017-11-13T01:51:32.397Z,9.00
2017-11-13T01:53:59.569Z,17.62
2017-11-13T01:56:26.006Z,14.18
2017-11-13T01:58:52.476Z,13.93
2017-11-13T02:01:18.936Z,13.27
2017-11-13T02:03:45.440Z,12.93
2017-11-13T02:06:13.400Z,7.05
2017-11-13T02:08:39.864Z,12.85
2017-11-13T02:11:06.357Z,15.80
2017-11-13T02:13:33.580Z,12.43
2017-11-13T02:16:00.029Z,12.57
2017-11-13T02:18:26.483Z,12.05
2017-11-13T02:20:53.685Z,9.73
2017-11-13T02:23:20.161Z,14.25
2017-11-13T02:25:46.599Z,14.00
2017-11-13T02:28:13.005Z,13.85
2017-11-13T02:30:39.460Z,14.77
2017-11-13T02:33:05.922Z,14.80
2017-11-13T02:35:32.504Z,13.13
2017-11-13T02:38:06.240Z,15.45
2017-11-13T02:40:32.753Z,14.90
2017-11-13T02:42:59.170Z,14.95
2017-11-13T02:45:26.346Z,21.20
2017-11-13T02:47:52.936Z,29.02
2017-11-13T02:50:19.389Z,20.10
2017-11-13T02:52:45.913Z,21.50
2017-11-13T02:55:13.817Z,18.48
2017-11-13T02:57:40.309Z,16.27
2017-11-13T03:00:06.868Z,16.83
2017-11-13T03:02:33.283Z,14.63
2017-11-13T03:04:59.799Z,22.15
2017-11-13T03:07:26.234Z,16.20
2017-11-13T03:09:52.730Z,19.00
2017-11-13T03:12:20.684Z,21.45
2017-11-13T03:14:47.117Z,17.45
2017-11-13T03:17:13.593Z,18.45
2017-11-13T03:19:40.216Z,17.15
2017-11-13T03:22:06.756Z,19.55
2017-11-13T03:24:33.209Z,21.98
2017-11-13T03:26:59.696Z,18.33
2017-11-13T03:29:26.308Z,19.37
2017-11-13T03:31:53.483Z,18.62
2017-11-13T03:34:19.958Z,20.50
2017-11-13T03:36:46.413Z,16.90
2017-11-13T03:39:12.921Z,16.17
2017-11-13T03:41:39.371Z,15.32
2017-11-13T03:44:05.846Z,12.10
2017-11-13T03:46:32.306Z,14.15
2017-11-13T03:48:58.765Z,11.60
2017-11-13T03:51:25.229Z,15.95
2017-11-13T03:53:52.312Z,15.77
2017-11-13T03:56:19.517Z,15.75
2017-11-13T03:58:45.948Z,17.77
2017-11-13T04:01:12.436Z,16.83
2017-11-13T04:03:38.884Z,13.00
2017-11-13T04:06:06.064Z,18.20
2017-11-13T04:08:33.317Z,13.85
2017-11-13T04:11:00.556Z,14.63
2017-11-13T04:13:27.778Z,18.12
2017-11-13T04:15:54.202Z,20.12
2017-11-13T04:18:20.674Z,14.05
2017-11-13T04:20:47.142Z,16.70
2017-11-13T04:23:13.574Z,17.00
2017-11-13T04:25:40.796Z,18.95
2017-11-13T04:28:07.216Z,15.40
2017-11-13T04:30:33.660Z,16.15
2017-11-13T04:33:00.112Z,17.90
2017-11-13T04:35:26.558Z,19.20
2017-11-13T04:37:53.018Z,19.55
2017-11-13T04:40:19.478Z,17.62
2017-11-13T04:42:46.706Z,17.23
2017-11-13T04:45:13.168Z,17.67
2017-11-13T04:47:40.455Z,15.80
2017-11-13T04:50:06.931Z,17.23
2017-11-13T04:52:33.528Z,18.40
2017-11-13T04:55:00.068Z,16.85
2017-11-13T04:57:26.580Z,18.52
2017-11-13T04:59:53.876Z,19.45
2017-11-13T05:02:20.373Z,18.58
2017-11-13T05:04:47.585Z,17.42
2017-11-13T05:07:14.053Z,18.75
2017-11-13T05:09:40.565Z,15.55
2017-11-13T05:12:07.025Z,22.20
2017-11-13T05:14:33.490Z,18.75
2017-11-13T05:17:00.645Z,16.62
2017-11-13T05:19:27.990Z,20.92
2017-11-13T05:21:54.409Z,15.27
2017-11-13T05:24:20.877Z,18.25
2017-11-13T05:26:47.297Z,13.65
2017-11-13T05:29:13.758Z,12.45
2017-11-13T05:31:40.950Z,17.00
2017-11-13T05:34:07.352Z,16.05
2017-11-13T05:36:34.574Z,8.95
2017-11-13T05:39:01.018Z,13.05
2017-11-13T05:41:27.482Z,15.77
2017-11-13T05:43:53.912Z,16.85
2017-11-13T05:46:20.548Z,19.67
2017-11-13T05:48:46.966Z,17.77
2017-11-13T05:51:13.414Z,17.15
2017-11-13T05:53:39.889Z,18.20
2017-11-13T05:56:07.086Z,20.48
2017-11-13T05:58:33.509Z,16.65
2017-11-13T06:00:59.989Z,16.85
2017-11-13T06:03:26.488Z,15.60
2017-11-13T06:05:52.944Z,19.52
2017-11-13T06:08:19.425Z,16.85
2017-11-13T06:10:45.957Z,15.75
2017-11-13T06:13:12.481Z,15.43
2017-11-13T06:15:38.908Z,16.95
2017-11-13T06:18:05.329Z,22.13
2017-11-13T06:20:31.782Z,18.55
2017-11-13T06:22:58.246Z,17.73
2017-11-13T06:25:24.733Z,19.98
2017-11-13T06:27:51.182Z,19.60
2017-11-13T06:30:17.622Z,23.30
2017-11-13T06:32:44.267Z,17.10
2017-11-13T06:35:10.689Z,22.87
2017-11-13T06:37:37.165Z,20.70
2017-11-13T06:40:03.617Z,18.08
2017-11-13T06:42:30.049Z,21.58
2017-11-13T06:44:56.711Z,21.12
2017-11-13T06:47:23.181Z,20.88
2017-11-13T06:49:50.373Z,18.02
2017-11-13T06:52:16.784Z,21.52
2017-11-13T06:54:50.153Z,18.40
2017-11-13T06:57:16.565Z,19.62
2017-11-13T06:59:43.001Z,17.37
2017-11-13T07:02:09.464Z,16.70
2017-11-13T07:04:35.878Z,17.52
2017-11-13T07:07:02.304Z,18.70
2017-11-13T07:09:28.797Z,17.95
2017-11-13T07:11:55.973Z,22.80
2017-11-13T07:14:22.450Z,19.40
2017-11-13T07:16:48.941Z,20.85
2017-11-13T07:19:16.235Z,19.42
2017-11-13T07:21:42.686Z,17.45
2017-11-13T07:24:09.120Z,19.67
2017-11-13T07:26:35.588Z,18.25
2017-11-13T07:29:02.076Z,16.33
2017-11-13T07:31:28.533Z,19.42
2017-11-13T07:33:54.980Z,19.95
2017-11-13T07:36:21.434Z,18.05
2017-11-13T07:38:47.893Z,20.23
2017-11-13T07:41:15.105Z,19.30
2017-11-13T07:43:41.523Z,17.85
2017-11-13T07:46:07.999Z,26.37
2017-11-13T07:48:34.529Z,37.88
2017-11-13T07:51:01.120Z,34.53
2017-11-13T07:53:28.361Z,29.45
2017-11-13T07:55:54.838Z,18.15
2017-11-13T07:58:21.320Z,18.70
2017-11-13T08:00:47.985Z,21.50
2017-11-13T08:03:15.170Z,25.80
2017-11-13T08:05:41.601Z,19.45
2017-11-13T08:08:08.046Z,19.90
2017-11-13T08:10:35.960Z,29.23
2017-11-13T08:13:03.220Z,17.27
2017-11-13T08:15:30.774Z,16.98
2017-11-13T08:17:57.204Z,14.85
2017-11-13T08:20:23.668Z,16.10
2017-11-13T08:22:50.160Z,19.73
2017-11-13T08:25:16.632Z,22.92
2017-11-13T08:27:43.080Z,15.75
2017-11-13T08:30:09.549Z,19.00
2017-11-13T08:32:36.752Z,19.23
2017-11-13T08:35:10.448Z,23.08
2017-11-13T08:37:36.933Z,21.42
2017-11-13T08:40:03.327Z,17.65
2017-11-13T08:42:29.970Z,21.17
2017-11-13T08:44:56.399Z,15.95
2017-11-13T08:47:22.923Z,17.60
2017-11-13T08:49:50.099Z,15.80
2017-11-13T08:52:16.632Z,17.58
2017-11-13T08:54:43.089Z,15.65
2017-11-13T08:57:09.538Z,15.57
2017-11-13T08:59:36.018Z,16.30
2017-11-13T09:02:03.206Z,13.50
2017-11-13T09:04:29.616Z,14.32
2017-11-13T09:06:56.815Z,17.20
2017-11-13T09:09:23.264Z,14.18
2017-11-13T09:11:50.042Z,14.15
2017-11-13T09:14:17.393Z,14.13
2017-11-13T09:16:44.042Z,12.20
2017-11-13T09:19:11.431Z,10.85
2017-11-13T09:21:38.078Z,15.00
2017-11-13T09:24:04.857Z,12.90
2017-11-13T09:26:31.517Z,13.88
2017-11-13T09:28:58.226Z,11.07
2017-11-13T09:31:24.918Z,13.10
2017-11-13T09:33:51.447Z,14.60
2017-11-13T09:36:17.961Z,11.82
2017-11-13T09:38:44.447Z,11.35
2017-11-13T09:41:11.081Z,9.90
2017-11-13T09:43:37.618Z,10.60
2017-11-13T09:46:04.125Z,15.68
2017-11-13T09:48:30.783Z,13.38
2017-11-13T09:50:57.295Z,13.07
2017-11-13T09:53:23.817Z,10.05
2017-11-13T09:55:51.093Z,10.88
2017-11-13T09:58:17.843Z,7.65
2017-11-13T10:00:44.585Z,8.90
2017-11-13T10:03:11.244Z,9.02
2017-11-13T10:05:39.255Z,9.43
2017-11-13T10:08:05.827Z,11.20
2017-11-13T10:10:33.386Z,9.80
2017-11-13T10:13:00.760Z,15.60
2017-11-13T10:15:27.376Z,11.45
2017-11-13T10:17:54.878Z,10.20
2017-11-13T10:20:21.392Z,10.52
2017-11-13T10:22:48.686Z,8.63
2017-11-13T10:25:15.353Z,9.95
2017-11-13T10:27:41.959Z,9.45
2017-11-13T10:30:08.509Z,11.38
2017-11-13T10:32:35.105Z,7.57
2017-11-13T10:35:02.652Z,8.18
2017-11-13T10:37:29.366Z,8.15
2017-11-13T10:39:55.860Z,10.75
2017-11-13T10:42:23.182Z,8.27
2017-11-13T10:44:49.827Z,7.87
2017-11-13T10:47:16.358Z,9.60
2017-11-13T10:49:42.946Z,11.27
2017-11-13T10:52:10.333Z,7.82
2017-11-13T10:54:36.897Z,7.87
2017-11-13T10:57:03.498Z,10.82
2017-11-13T10:59:30.776Z,10.60
2017-11-13T11:01:58.055Z,6.50
2017-11-13T11:04:24.733Z,6.57
2017-11-13T11:06:51.304Z,10.50
2017-11-13T11:09:18.706Z,8.90
2017-11-13T11:11:45.394Z,5.93
2017-11-13T11:14:17.641Z,6.45
2017-11-13T11:17:02.830Z,8.68
2017-11-13T11:19:34.013Z,9.32
2017-11-13T11:22:18.450Z,6.80
2017-11-13T11:24:45.008Z,7.05
2017-11-13T11:27:13.466Z,6.25
2017-11-13T11:29:52.812Z,7.90
2017-11-13T11:32:34.994Z,6.60
2017-11-13T11:35:06.324Z,5.90
2017-11-13T11:37:44.603Z,4.62
2017-11-13T11:40:11.140Z,10.38
2017-11-13T11:42:37.729Z,3.87
2017-11-13T11:45:08.028Z,4.90
2017-11-13T11:47:34.570Z,4.90
2017-11-13T11:50:01.150Z,5.80
2017-11-13T11:52:27.696Z,4.50
2017-11-13T11:54:57.072Z,3.75
2017-11-13T11:57:35.340Z,7.65
2017-11-13T12:00:01.842Z,4.18
2017-11-13T12:02:28.403Z,3.08
2017-11-13T12:04:55.127Z,3.95
2017-11-13T12:07:21.671Z,3.45
2017-11-13T12:09:48.961Z,2.50
2017-11-13T12:12:15.510Z,3.83
2017-11-13T12:14:42.038Z,3.60
2017-11-13T12:17:08.683Z,4.37
2017-11-13T12:19:35.181Z,5.25
2017-11-13T12:22:01.782Z,5.47
2017-11-13T12:24:28.466Z,3.85
2017-11-13T12:26:55.857Z,3.42
2017-11-13T12:29:22.593Z,4.15
2017-11-13T12:31:49.077Z,2.60
2017-11-13T12:34:15.613Z,2.72
2017-11-13T12:36:42.079Z,2.62
2017-11-13T12:39:09.514Z,2.40
2017-11-13T12:41:36.128Z,3.58
2017-11-13T12:44:02.787Z,3.05
2017-11-13T12:46:29.300Z,2.20
2017-11-13T12:48:55.877Z,3.40
2017-11-13T12:51:22.653Z,2.80
2017-11-13T12:53:49.955Z,2.40
2017-11-13T12:56:16.663Z,3.10
2017-11-13T12:58:43.897Z,2.42
2017-11-13T13:01:10.517Z,2.70
2017-11-13T13:03:37.248Z,3.58
2017-11-13T13:06:03.832Z,2.60
2017-11-13T13:08:30.558Z,3.12
2017-11-13T13:10:58.581Z,4.00
2017-11-13T13:13:25.117Z,4.07
2017-11-13T13:15:52.562Z,4.82
2017-11-13T13:18:19.138Z,2.97
2017-11-13T13:20:45.615Z,2.47
2017-11-13T13:23:12.178Z,3.40
2017-11-13T13:25:38.736Z,3.30
2017-11-13T13:28:06.022Z,4.03
2017-11-13T13:30:32.555Z,3.87
2017-11-13T13:32:59.063Z,4.27
2017-11-13T13:35:25.594Z,3.80
2017-11-13T13:37:52.124Z,2.57
2017-11-13T13:40:18.802Z,5.83
2017-11-13T13:42:46.119Z,4.35
2017-11-13T13:45:12.609Z,4.17
2017-11-13T13:47:39.250Z,4.07
2017-11-13T13:50:05.787Z,11.87
2017-11-13T13:52:33.039Z,10.87
2017-11-13T13:55:00.409Z,5.62
2017-11-13T13:57:27.700Z,5.68
2017-11-13T13:59:54.489Z,5.72
2017-11-13T14:02:20.989Z,3.60
2017-11-13T14:04:47.574Z,4.72
2017-11-13T14:07:14.094Z,5.80
2017-11-13T14:09:40.617Z,4.40
2017-11-13T14:12:07.129Z,3.33
2017-11-13T14:14:33.648Z,5.30
2017-11-13T14:17:00.875Z,4.20
2017-11-13T14:19:27.344Z,7.33
2017-11-13T14:21:54.715Z,3.80
2017-11-13T14:24:22.050Z,4.03
2017-11-13T14:26:48.598Z,3.60
2017-11-13T14:29:15.878Z,3.90
2017-11-13T14:31:43.140Z,4.37
2017-11-13T14:34:09.696Z,3.90
2017-11-13T14:36:36.470Z,3.95
2017-11-13T14:39:03.120Z,4.03
2017-11-13T14:41:29.628Z,5.20
2017-11-13T14:43:56.197Z,4.55
2017-11-13T14:46:22.814Z,5.25
2017-11-13T14:48:49.457Z,7.35
2017-11-13T14:51:15.951Z,5.57
2017-11-13T14:53:43.305Z,5.00
2017-11-13T14:56:09.858Z,4.93
2017-11-13T14:58:37.251Z,4.32
2017-11-13T15:01:04.105Z,4.97
2017-11-13T15:03:30.855Z,4.22
2017-11-13T15:05:57.417Z,5.28
2017-11-13T15:08:23.963Z,3.40
2017-11-13T15:10:50.547Z,3.92
2017-11-13T15:13:17.806Z,2.90
2017-11-13T15:15:45.321Z,3.45
2017-11-13T15:18:12.122Z,3.20
2017-11-13T15:20:38.735Z,3.12
2017-11-13T15:23:05.340Z,3.87
2017-11-13T15:25:31.950Z,3.90
2017-11-13T15:27:58.754Z,4.25
2017-11-13T15:30:25.331Z,3.92
2017-11-13T15:32:52.791Z,8.60
2017-11-13T15:35:20.357Z,6.30
2017-11-13T15:37:47.012Z,5.43
2017-11-13T15:40:13.979Z,7.53
2017-11-13T15:42:40.515Z,6.65
2017-11-13T15:45:07.096Z,6.62
2017-11-13T15:47:35.105Z,7.37
2017-11-13T15:50:02.400Z,7.80
2017-11-13T15:52:28.897Z,7.90
2017-11-13T15:54:56.252Z,7.65
2017-11-13T15:57:38.541Z,6.95
2017-11-13T16:00:05.029Z,7.32
2017-11-13T16:02:31.542Z,8.80
2017-11-13T16:04:58.767Z,6.20
2017-11-13T16:07:25.972Z,5.95
2017-11-13T16:09:52.526Z,7.10
2017-11-13T16:12:19.242Z,9.90
2017-11-13T16:14:46.482Z,6.10
2017-11-13T16:17:13.716Z,10.55
2017-11-13T16:19:40.326Z,9.70
2017-11-13T16:22:06.861Z,8.32
2017-11-13T16:24:33.383Z,7.32
2017-11-13T16:27:00.727Z,11.18
2017-11-13T16:29:28.069Z,11.27
2017-11-13T16:31:54.619Z,11.30
2017-11-13T16:34:21.179Z,10.77
2017-11-13T16:36:48.491Z,12.70
2017-11-13T16:39:19.880Z,10.48
2017-11-13T16:41:47.221Z,5.72
2017-11-13T16:44:13.758Z,6.62
2017-11-13T16:46:40.255Z,10.25
2017-11-13T16:49:06.791Z,14.55
2017-11-13T16:51:33.258Z,13.40
2017-11-13T16:53:59.881Z,12.90
2017-11-13T16:56:26.578Z,10.25
2017-11-13T16:58:54.680Z,13.88
2017-11-13T17:01:21.958Z,19.15
2017-11-13T17:03:48.433Z,22.15
2017-11-13T17:06:15.190Z,20.50
2017-11-13T17:08:41.664Z,19.80
2017-11-13T17:11:08.962Z,13.38
2017-11-13T17:13:35.499Z,12.07
2017-11-13T17:16:01.989Z,13.45
2017-11-13T17:18:29.253Z,13.38
2017-11-13T17:20:56.624Z,15.25
2017-11-13T17:23:23.247Z,19.62
2017-11-13T17:25:50.498Z,10.45
2017-11-13T17:28:17.078Z,14.70
2017-11-13T17:30:43.637Z,16.73
2017-11-13T17:33:10.274Z,12.43
2017-11-13T17:35:36.786Z,14.40
2017-11-13T17:38:03.296Z,12.48
2017-11-13T17:40:30.664Z,13.05
2017-11-13T17:42:57.154Z,16.95
2017-11-13T17:45:23.762Z,9.73
2017-11-13T17:47:51.022Z,14.27
2017-11-13T17:50:18.311Z,9.63
2017-11-13T17:52:44.814Z,13.10
2017-11-13T17:55:12.088Z,11.93
2017-11-13T17:57:38.673Z,11.48
2017-11-13T18:00:05.179Z,11.98
2017-11-13T18:02:31.673Z,9.25
2017-11-13T18:04:58.189Z,10.65
2017-11-13T18:07:24.728Z,13.95
2017-11-13T18:09:51.532Z,11.85
2017-11-13T18:12:18.010Z,10.85
2017-11-13T18:14:44.748Z,10.80
2017-11-13T18:17:11.260Z,10.68
2017-11-13T18:19:37.860Z,12.98
2017-11-13T18:22:04.463Z,11.65
2017-11-13T18:24:30.958Z,12.18
2017-11-13T18:26:58.303Z,14.40
2017-11-13T18:29:25.174Z,12.00
2017-11-13T18:31:52.546Z,11.38
2017-11-13T18:34:19.164Z,8.50
2017-11-13T18:36:45.765Z,11.88
2017-11-13T18:39:12.454Z,11.23
2017-11-13T18:41:39.781Z,10.85
2017-11-13T18:44:06.386Z,12.40
2017-11-13T18:46:33.068Z,13.77
2017-11-13T18:48:59.577Z,16.92
2017-11-13T18:51:27.757Z,15.23
2017-11-13T18:53:54.274Z,17.30
2017-11-13T18:56:21.566Z,13.85
2017-11-13T18:58:48.112Z,16.17
2017-11-13T19:01:14.632Z,16.67
2017-11-13T19:03:41.184Z,17.50
2017-11-13T19:06:07.710Z,13.75
2017-11-13T19:08:34.193Z,12.13
2017-11-13T19:11:00.780Z,16.70
2017-11-13T19:13:27.248Z,13.75
2017-11-13T19:15:54.549Z,16.92
2017-11-13T19:18:21.866Z,23.12
2017-11-13T19:20:48.597Z,15.98
2017-11-13T19:23:15.142Z,19.48
2017-11-13T19:25:41.682Z,21.98
2017-11-13T19:28:08.261Z,19.33
2017-11-13T19:30:34.804Z,17.67
2017-11-13T19:33:01.694Z,16.27
2017-11-13T19:35:28.276Z,17.73
2017-11-13T19:40:23.395Z,20.50
2017-11-13T19:42:49.982Z,18.62
2017-11-13T19:45:16.542Z,18.08
2017-11-13T19:47:43.801Z,17.62
2017-11-13T19:50:17.311Z,17.40
2017-11-13T19:52:43.849Z,22.15
2017-11-13T19:55:10.404Z,25.58
2017-11-13T19:57:37.290Z,16.70
2017-11-13T20:00:04.063Z,21.90
2017-11-13T20:02:30.820Z,23.35
2017-11-13T20:04:58.252Z,33.78
2017-11-13T20:07:25.587Z,34.53
2017-11-13T20:09:52.208Z,24.75
2017-11-13T20:12:18.807Z,24.52
2017-11-13T20:14:45.390Z,26.98
2017-11-13T20:17:12.093Z,22.35
2017-11-13T20:19:39.398Z,19.35
2017-11-13T20:22:06.572Z,23.10
2017-11-13T20:24:33.106Z,18.10
2017-11-13T20:27:00.417Z,21.67
2017-11-13T20:29:27.050Z,26.40
2017-11-13T20:31:53.746Z,20.12
2017-11-13T20:34:20.381Z,24.12
2017-11-13T20:36:47.201Z,21.17
2017-11-13T20:39:14.454Z,24.42
2017-11-13T20:41:41.671Z,23.83
2017-11-13T20:44:08.232Z,25.85
2017-11-13T20:46:34.829Z,21.80
2017-11-13T20:49:01.397Z,23.55
2017-11-13T20:51:27.992Z,24.83
2017-11-13T20:53:54.631Z,32.28
2017-11-13T20:56:21.908Z,38.88
2017-11-13T20:58:48.417Z,36.53
2017-11-13T21:01:15.747Z,21.17
2017-11-13T21:03:42.241Z,19.27
2017-11-13T21:06:08.750Z,21.70
2017-11-13T21:08:36.029Z,23.58
2017-11-13T21:20:48.458Z,32.50
2017-11-13T21:23:15.665Z,33.45
2017-11-13T21:25:42.947Z,29.65
2017-11-13T21:28:09.534Z,22.15
2017-11-13T21:30:36.069Z,26.15
2017-11-13T21:33:02.942Z,24.50
2017-11-13T21:35:30.181Z,20.25
2017-11-13T21:37:56.794Z,21.67
2017-11-13T21:40:23.451Z,18.50
2017-11-13T21:42:50.021Z,18.95
2017-11-13T21:45:16.537Z,22.70
2017-11-13T21:47:43.020Z,18.55
2017-11-13T21:50:10.486Z,19.73
2017-11-13T21:52:52.589Z,19.17
2017-11-13T21:55:19.982Z,17.73
2017-11-13T21:57:46.459Z,21.00
2017-11-13T22:00:13.011Z,19.42
2017-11-13T22:02:40.276Z,20.80
2017-11-13T22:05:08.453Z,29.80
2017-11-13T22:07:35.805Z,21.75
2017-11-13T22:10:03.114Z,22.92
2017-11-13T22:12:29.647Z,19.50
2017-11-13T22:14:56.138Z,21.27
2017-11-13T22:17:22.889Z,26.37
2017-11-13T22:19:50.221Z,24.00
2017-11-13T22:22:16.824Z,29.65
2017-11-13T22:24:43.297Z,30.75
2017-11-13T22:27:09.785Z,25.17
2017-11-13T22:29:37.102Z,25.10
2017-11-13T22:32:03.671Z,24.80
2017-11-13T22:34:31.082Z,23.00
2017-11-13T22:36:57.613Z,25.60
2017-11-13T22:39:24.387Z,27.10
2017-11-13T22:41:50.981Z,23.35
2017-11-13T22:44:18.218Z,32.15
2017-11-13T22:46:44.717Z,25.20
2017-11-13T22:49:11.216Z,27.50
2017-11-13T22:51:38.421Z,26.87
2017-11-13T22:54:04.924Z,29.02
2017-11-13T22:56:31.513Z,31.45
2017-11-13T22:58:58.096Z,28.38
2017-11-13T23:01:25.351Z,25.37
2017-11-13T23:03:51.823Z,24.95
2017-11-13T23:06:18.492Z,24.05
2017-11-13T23:08:45.080Z,24.80
2017-11-13T23:11:12.470Z,32.15
2017-11-13T23:13:38.941Z,20.92
2017-11-13T23:16:05.405Z,18.95
2017-11-13T23:18:32.578Z,20.77
2017-11-13T23:20:59.040Z,21.98
2017-11-13T23:23:25.597Z,20.77
2017-11-13T23:25:52.053Z,18.65
2017-11-13T23:31:11.984Z,19.98
2017-11-13T23:33:39.208Z,20.73
2017-11-13T23:36:05.724Z,15.00
2017-11-13T23:38:32.315Z,25.95
2017-11-13T23:40:59.573Z,23.33
2017-11-13T23:43:26.871Z,17.30
2017-11-13T23:45:53.372Z,16.37
2017-11-13T23:48:20.599Z,18.55
2017-11-13T23:50:47.069Z,19.37
2017-11-13T23:53:14.363Z,26.73
2017-11-13T23:55:40.853Z,22.75
2017-11-13T23:58:07.361Z,24.52
